Friday, November 17, 2017, 4:15 PM EST
Back to Local

KLWM, Lawrence Municipal Airport

Location: North Andover, MA, United States Lat: 42.717
Local Time: 4:15 PM EST (21:15 GMT) Lon: -71.133
Time Zone: US/Eastern Elev: 147 ft

Show me the last for .
Show Decoded

2017-11-17 15:54 METAR KLWM 172054Z 30008KT 10SM CLR 04/M06 A2994 RMK AO2 SLP140 T00441061 53017
                 =
2017-11-17 14:54 METAR KLWM 171954Z 30013G26KT 10SM CLR 06/M06 A2992 RMK AO2 PK WND 32031/1928
                 SLP133 T00561061 =
2017-11-17 13:54 METAR KLWM 171854Z 30013G22KT 10SM CLR 06/M06 A2989 RMK AO2 PK WND 31028/1755
                 SLP123 T00561056 =
2017-11-17 12:54 METAR KLWM 171754Z 30016G28KT 10SM CLR 06/M05 A2989 RMK AO2 PK WND 28030/1704
                 SLP122 T00561050 10056 20039 56004 =
2017-11-17 11:54 METAR KLWM 171654Z 30012G24KT 10SM FEW039 06/M04 A2989 RMK AO2 PK WND 32034/1556
                 SLP123 T00561044 =
2017-11-17 10:54 METAR KLWM 171554Z 29018G28KT 10SM FEW038 05/M04 A2990 RMK AO2 PK WND 31032/1543
                 SLP124 T00501044 =
2017-11-17 09:54 METAR KLWM 171454Z 30017G25KT 10SM BKN033 04/M03 A2990 RMK AO2 PK WND 29028/1424
                 SLP126 T00441033 51024 =
2017-11-17 08:54 METAR KLWM 171354Z 31017G24KT 10SM OVC033 04/M03 A2989 RMK AO2 PK WND 29028/1258
                 SLP122 T00441028 =
2017-11-17 07:54 METAR KLWM 171254Z 29016G24KT 10SM FEW035 OVC095 04/M03 A2986 RMK AO2 PK WND
                 32031/1223 SLP112 T00441028 =
2017-11-17 06:54 METAR KLWM 171154Z 30013G19KT 10SM BKN035 OVC080 04/M02 A2983 RMK AO2 PK WND
                 28027/1100 SLP102 70036 T00441022 10056 20044 53031 =
2017-11-17 05:54 METAR KLWM 171054Z AUTO 29008G17KT 10SM OVC038 04/M02 A2979 RMK AO2 PK WND
                 28026/1027 SLP089 T00441017 =
2017-11-17 04:54 METAR KLWM 170954Z AUTO 29011G21KT 10SM FEW034 04/M02 A2976 RMK AO2 PK WND
                 28026/0929 SLP079 T00441017 =
2017-11-17 03:54 METAR KLWM 170854Z AUTO 28008G19KT 10SM CLR 05/M01 A2974 RMK AO2 SLP070
                 T00501006 51013 =
2017-11-17 02:54 METAR KLWM 170754Z AUTO 26008KT 10SM CLR 05/01 A2972 RMK AO2 SLP066 T00500006 =
2017-11-17 01:54 METAR KLWM 170654Z AUTO 28008KT 10SM CLR 06/01 A2971 RMK AO2 SLP062 T00560011 =
2017-11-17 00:54 METAR KLWM 170554Z AUTO 26007KT 10SM CLR 06/02 A2970 RMK AO2 SLP057 60007
                 T00560022 10078 20056 58001 =
2017-11-16 23:54 METAR KLWM 170454Z AUTO 23007KT 10SM CLR 06/03 A2970 RMK AO2 SLP056 T00560033
                 401110000 =
2017-11-16 22:54 METAR KLWM 170354Z AUTO 25007KT 10SM CLR 07/04 A2970 RMK AO2 SLP059 T00670039 =
2017-11-16 21:54 METAR KLWM 170254Z 25008KT 10SM CLR 07/04 A2970 RMK AO2 SLP057 60007 T00670044
                 58007 =
2017-11-16 20:54 METAR KLWM 170154Z 24006KT 10SM FEW007 SCT065 BKN095 07/05 A2971 RMK AO2 RAE39
                 SLP062 P0000 T00670050 =
2017-11-16 20:40 METAR KLWM 170140Z 25007KT 10SM FEW006 SCT038 BKN060 07/05 A2971 RMK AO2 RAE39
                 P0000 T00670050 =
2017-11-16 19:54 METAR KLWM 170054Z 28010KT 9SM -RA BKN038 OVC046 07/05 A2972 RMK AO2 SLP065
                 P0007 T00720050 =
2017-11-16 18:54 METAR KLWM 162354Z 27008KT 4SM RA BR SCT004 BKN014 OVC050 07/05 A2972 RMK AO2
                 RAB36 SLP064 P0005 60026 T00720050 10094 20072 53003 =
2017-11-16 18:51 METAR KLWM 162351Z 26008G17KT 4SM RA BR SCT004 BKN016 OVC040 07/05 A2972 RMK AO2
                 RAB36 P0004 =
2017-11-16 17:54 METAR KLWM 162254Z 28006KT 5SM BR BKN003 OVC006 08/06 A2971 RMK AO2 SLP062
                 T00780061 =
2017-11-16 17:23 METAR KLWM 162223Z 30003KT 6SM BR OVC006 08/07 A2970 RMK AO2 LTG DSNT W CIG
                 002V008 T00830067 =
2017-11-16 16:54 METAR KLWM 162154Z 00000KT 5SM BR OVC003 08/07 A2970 RMK AO2 RAE12 SLP057 P0001
                 T00830067 =

Support USWX by starting your Amazon purchase here.